sensor_id;sensor_type;location;lat;lon;timestamp;noise_LAeq;noise_LA_min;noise_LA_max;noise_LA01;noise_LA95
61095;Laerm;20450;49.074;9.158;2023-07-31T00:00:06;38.86;35.94;41.89;;
61095;Laerm;20450;49.074;9.158;2023-07-31T00:02:33;39.13;36.20;41.82;;
61095;Laerm;20450;49.074;9.158;2023-07-31T00:05:01;38.92;35.94;41.61;;
61095;Laerm;20450;49.074;9.158;2023-07-31T00:07:30;39.36;36.20;42.98;;
61095;Laerm;20450;49.074;9.158;2023-07-31T00:09:57;39.35;36.69;43.39;;
61095;Laerm;20450;49.074;9.158;2023-07-31T00:12:24;39.36;36.20;58.29;;
61095;Laerm;20450;49.074;9.158;2023-07-31T00:14:51;39.12;35.66;42.74;;
61095;Laerm;20450;49.074;9.158;2023-07-31T00:17:18;38.99;35.66;41.61;;
61095;Laerm;20450;49.074;9.158;2023-07-31T00:19:45;39.11;35.66;43.24;;
61095;Laerm;20450;49.074;9.158;2023-07-31T00:22:12;39.77;35.66;44.73;;
61095;Laerm;20450;49.074;9.158;2023-07-31T00:24:40;39.20;36.45;43.72;;
61095;Laerm;20450;49.074;9.158;2023-07-31T00:27:07;39.88;36.20;45.11;;
61095;Laerm;20450;49.074;9.158;2023-07-31T00:29:34;38.80;35.36;41.14;;
61095;Laerm;20450;49.074;9.158;2023-07-31T00:32:01;39.20;35.94;42.03;;
61095;Laerm;20450;49.074;9.158;2023-07-31T00:34:28;39.10;35.94;42.29;;
61095;Laerm;20450;49.074;9.158;2023-07-31T00:36:55;39.86;36.91;43.34;;
61095;Laerm;20450;49.074;9.158;2023-07-31T00:39:22;39.14;36.20;41.46;;
61095;Laerm;20450;49.074;9.158;2023-07-31T00:41:51;39.53;36.20;43.39;;
61095;Laerm;20450;49.074;9.158;2023-07-31T00:44:17;39.28;35.94;43.58;;
61095;Laerm;20450;49.074;9.158;2023-07-31T00:46:44;38.95;35.94;41.14;;
61095;Laerm;20450;49.074;9.158;2023-07-31T00:49:12;39.50;36.20;42.82;;
61095;Laerm;20450;49.074;9.158;2023-07-31T00:51:39;39.10;36.20;41.30;;
61095;Laerm;20450;49.074;9.158;2023-07-31T00:54:07;40.26;36.69;43.04;;
61095;Laerm;20450;49.074;9.158;2023-07-31T00:56:34;39.27;35.66;42.29;;
61095;Laerm;20450;49.074;9.158;2023-07-31T00:59:03;39.35;35.31;43.94;;
61095;Laerm;20450;49.074;9.158;2023-07-31T01:01:32;39.08;36.45;41.82;;
61095;Laerm;20450;49.074;9.158;2023-07-31T01:04:00;39.19;36.45;41.89;;
61095;Laerm;20450;49.074;9.158;2023-07-31T01:06:34;39.11;36.20;42.22;;
61095;Laerm;20450;49.074;9.158;2023-07-31T01:09:11;39.88;35.66;43.77;;
61095;Laerm;20450;49.074;9.158;2023-07-31T01:11:48;38.92;35.36;42.29;;
61095;Laerm;20450;49.074;9.158;2023-07-31T01:14:19;38.79;35.66;40.80;;
61095;Laerm;20450;49.074;9.158;2023-07-31T01:16:46;39.13;35.94;42.09;;
61095;Laerm;20450;49.074;9.158;2023-07-31T01:19:15;39.36;35.31;42.88;;
61095;Laerm;20450;49.074;9.158;2023-07-31T01:22:14;39.37;36.20;45.11;;
61095;Laerm;20450;49.074;9.158;2023-07-31T01:25:01;39.52;36.45;44.03;;
61095;Laerm;20450;49.074;9.158;2023-07-31T01:27:44;39.02;35.04;41.30;;
61095;Laerm;20450;49.074;9.158;2023-07-31T01:30:25;39.27;35.66;42.82;;
61095;Laerm;20450;49.074;9.158;2023-07-31T01:32:57;39.13;35.36;42.16;;
61095;Laerm;20450;49.074;9.158;2023-07-31T01:35:25;38.91;35.66;41.06;;
61095;Laerm;20450;49.074;9.158;2023-07-31T01:37:52;39.04;35.94;41.89;;
61095;Laerm;20450;49.074;9.158;2023-07-31T01:40:20;39.56;36.20;44.90;;
61095;Laerm;20450;49.074;9.158;2023-07-31T01:42:49;39.73;36.20;44.94;;
61095;Laerm;20450;49.074;9.158;2023-07-31T01:45:16;40.78;36.69;46.97;;
61095;Laerm;20450;49.074;9.158;2023-07-31T01:47:43;39.82;36.69;42.82;;
61095;Laerm;20450;49.074;9.158;2023-07-31T01:50:11;39.60;36.69;42.88;;
61095;Laerm;20450;49.074;9.158;2023-07-31T01:52:38;39.45;36.45;41.96;;
61095;Laerm;20450;49.074;9.158;2023-07-31T01:55:08;39.69;35.66;47.08;;
61095;Laerm;20450;49.074;9.158;2023-07-31T01:57:36;39.45;36.69;46.20;;
61095;Laerm;20450;49.074;9.158;2023-07-31T02:00:07;39.73;36.45;48.77;;
61095;Laerm;20450;49.074;9.158;2023-07-31T02:02:40;39.71;36.45;45.04;;
61095;Laerm;20450;49.074;9.158;2023-07-31T02:05:07;40.45;36.45;45.57;;
61095;Laerm;20450;49.074;9.158;2023-07-31T02:07:37;40.38;36.69;46.23;;
61095;Laerm;20450;49.074;9.158;2023-07-31T02:10:05;39.60;36.20;43.09;;
61095;Laerm;20450;49.074;9.158;2023-07-31T02:12:32;39.94;36.10;44.43;;
61095;Laerm;20450;49.074;9.158;2023-07-31T02:14:59;39.40;35.94;42.53;;
61095;Laerm;20450;49.074;9.158;2023-07-31T02:17:27;40.01;36.91;43.77;;
61095;Laerm;20450;49.074;9.158;2023-07-31T02:19:54;40.02;36.20;45.30;;
61095;Laerm;20450;49.074;9.158;2023-07-31T02:22:21;39.61;35.66;43.99;;
61095;Laerm;20450;49.074;9.158;2023-07-31T02:24:49;39.42;35.94;42.88;;
61095;Laerm;20450;49.074;9.158;2023-07-31T02:27:16;39.83;36.69;45.23;;
61095;Laerm;20450;49.074;9.158;2023-07-31T02:29:44;39.67;36.20;44.15;;
61095;Laerm;20450;49.074;9.158;2023-07-31T02:32:12;39.92;36.69;43.24;;
61095;Laerm;20450;49.074;9.158;2023-07-31T02:34:40;39.88;36.69;44.35;;
61095;Laerm;20450;49.074;9.158;2023-07-31T02:37:08;40.48;37.32;45.14;;
61095;Laerm;20450;49.074;9.158;2023-07-31T02:39:36;39.78;37.32;42.09;;
61095;Laerm;20450;49.074;9.158;2023-07-31T02:42:04;39.69;36.91;42.59;;
61095;Laerm;20450;49.074;9.158;2023-07-31T02:44:31;39.76;35.94;44.07;;
61095;Laerm;20450;49.074;9.158;2023-07-31T02:46:58;40.23;36.20;44.54;;
61095;Laerm;20450;49.074;9.158;2023-07-31T02:49:25;39.66;36.20;44.80;;
61095;Laerm;20450;49.074;9.158;2023-07-31T02:51:53;39.76;36.77;42.59;;
61095;Laerm;20450;49.074;9.158;2023-07-31T02:54:21;39.70;36.20;43.14;;
61095;Laerm;20450;49.074;9.158;2023-07-31T02:56:48;39.53;35.94;42.76;;
61095;Laerm;20450;49.074;9.158;2023-07-31T02:59:15;39.90;36.91;42.65;;
61095;Laerm;20450;49.074;9.158;2023-07-31T03:01:42;39.81;36.20;46.43;;
61095;Laerm;20450;49.074;9.158;2023-07-31T03:04:09;40.63;35.36;44.39;;
61095;Laerm;20450;49.074;9.158;2023-07-31T03:06:36;40.93;36.91;45.36;;
61095;Laerm;20450;49.074;9.158;2023-07-31T03:09:05;40.24;36.91;43.81;;
61095;Laerm;20450;49.074;9.158;2023-07-31T03:11:32;40.52;36.69;47.18;;
61095;Laerm;20450;49.074;9.158;2023-07-31T03:13:59;40.59;37.12;44.23;;
61095;Laerm;20450;49.074;9.158;2023-07-31T03:16:26;40.63;37.12;48.36;;
61095;Laerm;20450;49.074;9.158;2023-07-31T03:18:54;40.57;37.52;43.90;;
61095;Laerm;20450;49.074;9.158;2023-07-31T03:21:21;40.80;36.91;44.58;;
61095;Laerm;20450;49.074;9.158;2023-07-31T03:23:48;40.43;36.69;43.29;;
61095;Laerm;20450;49.074;9.158;2023-07-31T03:26:18;40.36;37.12;44.03;;
61095;Laerm;20450;49.074;9.158;2023-07-31T03:28:45;40.26;36.69;42.53;;
61095;Laerm;20450;49.074;9.158;2023-07-31T03:31:12;41.14;37.70;48.26;;
61095;Laerm;20450;49.074;9.158;2023-07-31T03:33:39;41.04;36.91;44.27;;
61095;Laerm;20450;49.074;9.158;2023-07-31T03:36:06;42.19;38.37;53.47;;
61095;Laerm;20450;49.074;9.158;2023-07-31T03:38:33;40.69;38.05;43.19;;
61095;Laerm;20450;49.074;9.158;2023-07-31T03:41:00;41.25;37.88;44.27;;
61095;Laerm;20450;49.074;9.158;2023-07-31T03:43:29;42.01;37.70;48.85;;
61095;Laerm;20450;49.074;9.158;2023-07-31T03:45:56;41.30;38.05;46.52;;
61095;Laerm;20450;49.074;9.158;2023-07-31T03:48:24;41.55;38.32;45.89;;
61095;Laerm;20450;49.074;9.158;2023-07-31T03:50:51;41.48;38.21;48.10;;
61095;Laerm;20450;49.074;9.158;2023-07-31T03:53:18;40.86;37.32;45.31;;
61095;Laerm;20450;49.074;9.158;2023-07-31T03:55:45;40.96;37.88;46.43;;
61095;Laerm;20450;49.074;9.158;2023-07-31T03:58:12;41.42;37.88;48.36;;
61095;Laerm;20450;49.074;9.158;2023-07-31T04:00:41;42.30;38.67;46.69;;
61095;Laerm;20450;49.074;9.158;2023-07-31T04:03:08;41.34;37.32;44.65;;
61095;Laerm;20450;49.074;9.158;2023-07-31T04:05:38;41.39;37.88;46.48;;
61095;Laerm;20450;49.074;9.158;2023-07-31T04:08:06;41.68;38.95;45.14;;
61095;Laerm;20450;49.074;9.158;2023-07-31T04:10:33;41.15;37.88;51.31;;
61095;Laerm;20450;49.074;9.158;2023-07-31T04:13:00;42.19;38.95;46.10;;
61095;Laerm;20450;49.074;9.158;2023-07-31T04:15:27;41.76;38.67;54.53;;
61095;Laerm;20450;49.074;9.158;2023-07-31T04:17:56;41.34;37.52;47.63;;
61095;Laerm;20450;49.074;9.158;2023-07-31T04:20:23;41.43;38.52;50.06;;
61095;Laerm;20450;49.074;9.158;2023-07-31T04:22:50;42.31;38.52;51.68;;
61095;Laerm;20450;49.074;9.158;2023-07-31T04:25:17;41.94;38.67;51.28;;
61095;Laerm;20450;49.074;9.158;2023-07-31T04:27:44;41.92;38.81;49.14;;
61095;Laerm;20450;49.074;9.158;2023-07-31T04:30:11;41.57;38.67;45.45;;
61095;Laerm;20450;49.074;9.158;2023-07-31T04:32:38;42.28;38.37;53.80;;
61095;Laerm;20450;49.074;9.158;2023-07-31T04:35:07;41.99;39.57;45.75;;
61095;Laerm;20450;49.074;9.158;2023-07-31T04:37:36;42.38;39.34;49.38;;
61095;Laerm;20450;49.074;9.158;2023-07-31T04:40:04;42.05;39.21;47.60;;
61095;Laerm;20450;49.074;9.158;2023-07-31T04:42:32;42.74;39.70;46.57;;
61095;Laerm;20450;49.074;9.158;2023-07-31T04:44:59;42.70;39.81;55.37;;
61095;Laerm;20450;49.074;9.158;2023-07-31T04:47:26;42.07;38.05;51.16;;
61095;Laerm;20450;49.074;9.158;2023-07-31T04:49:53;42.88;39.21;52.28;;
61095;Laerm;20450;49.074;9.158;2023-07-31T04:52:21;43.34;39.92;48.34;;
61095;Laerm;20450;49.074;9.158;2023-07-31T04:54:48;43.61;39.34;69.61;;
61095;Laerm;20450;49.074;9.158;2023-07-31T04:57:16;42.81;39.58;51.18;;
61095;Laerm;20450;49.074;9.158;2023-07-31T04:59:43;41.84;39.21;47.73;;
61095;Laerm;20450;49.074;9.158;2023-07-31T05:02:12;42.62;39.58;48.91;;
61095;Laerm;20450;49.074;9.158;2023-07-31T05:04:39;42.43;39.70;49.79;;
61095;Laerm;20450;49.074;9.158;2023-07-31T05:07:08;42.43;39.58;54.17;;
61095;Laerm;20450;49.074;9.158;2023-07-31T05:09:36;42.16;38.95;48.78;;
61095;Laerm;20450;49.074;9.158;2023-07-31T05:12:05;42.70;39.21;51.28;;
61095;Laerm;20450;49.074;9.158;2023-07-31T05:14:32;42.89;40.03;49.12;;
61095;Laerm;20450;49.074;9.158;2023-07-31T05:16:59;42.59;38.67;46.59;;
61095;Laerm;20450;49.074;9.158;2023-07-31T05:19:26;43.01;39.08;49.41;;
61095;Laerm;20450;49.074;9.158;2023-07-31T05:21:53;42.69;38.21;50.93;;
61095;Laerm;20450;49.074;9.158;2023-07-31T05:24:20;42.69;38.81;50.10;;
61095;Laerm;20450;49.074;9.158;2023-07-31T05:26:48;42.83;38.81;46.95;;
61095;Laerm;20450;49.074;9.158;2023-07-31T05:29:16;43.08;39.46;56.58;;
61095;Laerm;20450;49.074;9.158;2023-07-31T05:31:43;41.96;39.21;46.71;;
61095;Laerm;20450;49.074;9.158;2023-07-31T05:34:10;42.46;39.08;49.82;;
61095;Laerm;20450;49.074;9.158;2023-07-31T05:36:37;42.19;39.58;48.60;;
61095;Laerm;20450;49.074;9.158;2023-07-31T05:39:05;42.34;39.34;47.77;;
61095;Laerm;20450;49.074;9.158;2023-07-31T05:41:32;42.48;39.81;46.50;;
61095;Laerm;20450;49.074;9.158;2023-07-31T05:44:00;43.13;39.46;48.26;;
61095;Laerm;20450;49.074;9.158;2023-07-31T05:46:28;42.35;39.34;46.87;;
61095;Laerm;20450;49.074;9.158;2023-07-31T05:48:55;42.65;39.08;46.78;;
61095;Laerm;20450;49.074;9.158;2023-07-31T05:51:22;42.72;39.58;48.66;;
61095;Laerm;20450;49.074;9.158;2023-07-31T05:53:49;42.80;38.81;54.07;;
61095;Laerm;20450;49.074;9.158;2023-07-31T05:56:16;42.91;39.92;51.48;;
61095;Laerm;20450;49.074;9.158;2023-07-31T05:58:43;42.42;38.21;47.32;;
61095;Laerm;20450;49.074;9.158;2023-07-31T06:01:12;43.38;38.21;50.40;;
61095;Laerm;20450;49.074;9.158;2023-07-31T06:03:39;43.14;39.81;50.76;;
61095;Laerm;20450;49.074;9.158;2023-07-31T06:06:06;42.32;39.70;46.40;;
61095;Laerm;20450;49.074;9.158;2023-07-31T06:08:33;43.07;40.13;48.51;;
61095;Laerm;20450;49.074;9.158;2023-07-31T06:11:00;42.31;38.67;52.22;;
61095;Laerm;20450;49.074;9.158;2023-07-31T06:13:27;43.14;38.21;50.70;;
61095;Laerm;20450;49.074;9.158;2023-07-31T06:15:54;43.18;39.23;53.98;;
61095;Laerm;20450;49.074;9.158;2023-07-31T06:18:23;43.55;39.46;53.30;;
61095;Laerm;20450;49.074;9.158;2023-07-31T06:20:50;42.98;39.58;53.61;;
61095;Laerm;20450;49.074;9.158;2023-07-31T06:23:17;43.44;39.81;53.69;;
61095;Laerm;20450;49.074;9.158;2023-07-31T06:25:44;42.46;38.81;47.36;;
61095;Laerm;20450;49.074;9.158;2023-07-31T06:28:11;42.11;39.21;46.59;;
61095;Laerm;20450;49.074;9.158;2023-07-31T06:30:38;42.75;39.08;51.68;;
61095;Laerm;20450;49.074;9.158;2023-07-31T06:33:05;43.43;40.03;54.07;;
61095;Laerm;20450;49.074;9.158;2023-07-31T06:35:34;43.41;39.70;51.71;;
61095;Laerm;20450;49.074;9.158;2023-07-31T06:38:01;43.16;37.70;50.82;;
61095;Laerm;20450;49.074;9.158;2023-07-31T06:40:28;42.91;39.46;54.44;;
61095;Laerm;20450;49.074;9.158;2023-07-31T06:42:56;42.55;39.46;48.69;;
61095;Laerm;20450;49.074;9.158;2023-07-31T06:45:24;43.36;39.34;58.29;;
61095;Laerm;20450;49.074;9.158;2023-07-31T06:47:51;42.36;38.67;48.92;;
61095;Laerm;20450;49.074;9.158;2023-07-31T06:50:18;42.17;38.95;52.91;;
61095;Laerm;20450;49.074;9.158;2023-07-31T06:52:47;42.52;38.95;49.80;;
61095;Laerm;20450;49.074;9.158;2023-07-31T06:55:19;43.40;38.81;62.05;;
61095;Laerm;20450;49.074;9.158;2023-07-31T06:57:47;43.46;38.67;52.39;;
61095;Laerm;20450;49.074;9.158;2023-07-31T07:00:15;42.46;37.88;50.85;;
61095;Laerm;20450;49.074;9.158;2023-07-31T07:02:44;42.84;38.52;55.37;;
61095;Laerm;20450;49.074;9.158;2023-07-31T07:05:11;42.95;39.21;51.72;;
61095;Laerm;20450;49.074;9.158;2023-07-31T07:07:38;43.25;38.05;59.99;;
61095;Laerm;20450;49.074;9.158;2023-07-31T07:10:09;42.29;38.81;48.45;;
61095;Laerm;20450;49.074;9.158;2023-07-31T07:12:37;42.80;38.37;50.21;;
61095;Laerm;20450;49.074;9.158;2023-07-31T07:15:06;42.82;39.46;51.25;;
61095;Laerm;20450;49.074;9.158;2023-07-31T07:17:34;43.33;40.03;53.96;;
61095;Laerm;20450;49.074;9.158;2023-07-31T07:20:01;43.08;38.74;53.54;;
61095;Laerm;20450;49.074;9.158;2023-07-31T07:22:28;42.76;39.46;54.57;;
61095;Laerm;20450;49.074;9.158;2023-07-31T07:24:56;42.17;38.21;47.70;;
61095;Laerm;20450;49.074;9.158;2023-07-31T07:27:24;42.40;38.05;48.43;;
61095;Laerm;20450;49.074;9.158;2023-07-31T07:29:51;41.59;38.37;44.94;;
61095;Laerm;20450;49.074;9.158;2023-07-31T07:32:18;41.84;37.88;48.52;;
61095;Laerm;20450;49.074;9.158;2023-07-31T07:34:48;42.43;38.95;49.70;;
61095;Laerm;20450;49.074;9.158;2023-07-31T07:37:15;45.95;37.32;67.24;;
61095;Laerm;20450;49.074;9.158;2023-07-31T07:39:43;42.68;39.11;49.58;;
61095;Laerm;20450;49.074;9.158;2023-07-31T07:42:10;42.82;39.08;50.77;;
61095;Laerm;20450;49.074;9.158;2023-07-31T07:44:38;42.37;38.95;46.94;;
61095;Laerm;20450;49.074;9.158;2023-07-31T07:47:06;44.82;39.08;59.27;;
61095;Laerm;20450;49.074;9.158;2023-07-31T07:49:34;42.96;38.52;50.15;;
61095;Laerm;20450;49.074;9.158;2023-07-31T07:52:03;42.54;38.21;53.08;;
61095;Laerm;20450;49.074;9.158;2023-07-31T07:54:32;43.73;39.70;64.43;;
61095;Laerm;20450;49.074;9.158;2023-07-31T07:56:59;42.66;39.70;49.27;;
61095;Laerm;20450;49.074;9.158;2023-07-31T07:59:26;42.97;39.34;52.25;;
61095;Laerm;20450;49.074;9.158;2023-07-31T08:01:55;42.19;38.37;55.00;;
61095;Laerm;20450;49.074;9.158;2023-07-31T08:04:22;45.87;39.46;62.95;;
61095;Laerm;20450;49.074;9.158;2023-07-31T08:06:49;43.63;38.67;56.83;;
61095;Laerm;20450;49.074;9.158;2023-07-31T08:09:16;43.03;39.70;54.54;;
61095;Laerm;20450;49.074;9.158;2023-07-31T08:11:43;43.56;39.21;57.89;;
61095;Laerm;20450;49.074;9.158;2023-07-31T08:14:10;42.46;39.21;53.25;;
61095;Laerm;20450;49.074;9.158;2023-07-31T08:16:38;44.87;38.95;65.11;;
61095;Laerm;20450;49.074;9.158;2023-07-31T08:19:08;41.80;39.34;49.11;;
61095;Laerm;20450;49.074;9.158;2023-07-31T08:21:35;42.59;39.81;49.69;;
61095;Laerm;20450;49.074;9.158;2023-07-31T08:24:02;43.87;39.92;61.10;;
61095;Laerm;20450;49.074;9.158;2023-07-31T08:26:29;42.89;39.34;57.74;;
61095;Laerm;20450;49.074;9.158;2023-07-31T08:28:57;42.81;39.08;54.30;;
61095;Laerm;20450;49.074;9.158;2023-07-31T08:31:27;43.06;39.70;49.87;;
61095;Laerm;20450;49.074;9.158;2023-07-31T08:33:55;46.22;39.08;69.63;;
61095;Laerm;20450;49.074;9.158;2023-07-31T08:36:24;45.10;40.23;63.57;;
61095;Laerm;20450;49.074;9.158;2023-07-31T08:38:55;44.36;39.81;61.54;;
61095;Laerm;20450;49.074;9.158;2023-07-31T08:41:22;44.28;40.03;60.47;;
61095;Laerm;20450;49.074;9.158;2023-07-31T08:43:50;43.64;39.34;58.34;;
61095;Laerm;20450;49.074;9.158;2023-07-31T08:46:20;43.04;39.81;51.40;;
61095;Laerm;20450;49.074;9.158;2023-07-31T08:48:48;43.29;39.34;54.59;;
61095;Laerm;20450;49.074;9.158;2023-07-31T08:51:16;43.96;38.95;61.34;;
61095;Laerm;20450;49.074;9.158;2023-07-31T08:53:44;43.01;40.03;52.15;;
61095;Laerm;20450;49.074;9.158;2023-07-31T08:56:13;44.86;39.81;65.96;;
61095;Laerm;20450;49.074;9.158;2023-07-31T08:58:41;46.68;40.13;65.42;;
61095;Laerm;20450;49.074;9.158;2023-07-31T09:01:09;42.34;39.34;48.02;;
61095;Laerm;20450;49.074;9.158;2023-07-31T09:03:40;44.16;38.95;51.86;;
61095;Laerm;20450;49.074;9.158;2023-07-31T09:06:09;43.57;39.70;57.05;;
61095;Laerm;20450;49.074;9.158;2023-07-31T09:08:42;42.55;38.81;51.80;;
61095;Laerm;20450;49.074;9.158;2023-07-31T09:11:10;42.10;39.08;50.84;;
61095;Laerm;20450;49.074;9.158;2023-07-31T09:13:40;43.17;39.46;52.24;;
61095;Laerm;20450;49.074;9.158;2023-07-31T09:16:10;43.16;38.81;54.68;;
61095;Laerm;20450;49.074;9.158;2023-07-31T09:18:53;42.86;38.21;54.73;;
61095;Laerm;20450;49.074;9.158;2023-07-31T09:21:21;42.71;38.60;55.64;;
61095;Laerm;20450;49.074;9.158;2023-07-31T09:23:48;44.17;39.58;59.47;;
61095;Laerm;20450;49.074;9.158;2023-07-31T09:26:31;41.84;39.21;46.64;;
61095;Laerm;20450;49.074;9.158;2023-07-31T09:28:59;42.60;38.67;55.88;;
61095;Laerm;20450;49.074;9.158;2023-07-31T09:31:38;43.11;38.52;53.71;;
61095;Laerm;20450;49.074;9.158;2023-07-31T09:34:06;42.86;39.58;57.84;;
61095;Laerm;20450;49.074;9.158;2023-07-31T09:36:40;43.90;40.03;53.07;;
61095;Laerm;20450;49.074;9.158;2023-07-31T09:39:09;42.94;38.95;53.87;;
61095;Laerm;20450;49.074;9.158;2023-07-31T09:41:38;43.81;39.08;59.60;;
61095;Laerm;20450;49.074;9.158;2023-07-31T09:44:06;43.28;39.34;56.18;;
61095;Laerm;20450;49.074;9.158;2023-07-31T09:46:35;46.17;38.95;62.33;;
61095;Laerm;20450;49.074;9.158;2023-07-31T09:49:05;43.40;39.92;55.66;;
61095;Laerm;20450;49.074;9.158;2023-07-31T09:51:33;42.07;38.37;47.96;;
61095;Laerm;20450;49.074;9.158;2023-07-31T09:54:00;42.73;39.21;56.40;;
61095;Laerm;20450;49.074;9.158;2023-07-31T09:56:27;42.73;39.34;58.75;;
61095;Laerm;20450;49.074;9.158;2023-07-31T09:58:56;42.27;38.95;52.57;;
61095;Laerm;20450;49.074;9.158;2023-07-31T10:01:23;41.82;38.37;51.14;;
61095;Laerm;20450;49.074;9.158;2023-07-31T10:03:52;42.66;39.21;51.40;;
61095;Laerm;20450;49.074;9.158;2023-07-31T10:06:20;44.74;39.08;62.42;;
61095;Laerm;20450;49.074;9.158;2023-07-31T10:08:49;42.28;38.95;49.77;;
61095;Laerm;20450;49.074;9.158;2023-07-31T10:11:22;43.14;39.70;51.69;;
61095;Laerm;20450;49.074;9.158;2023-07-31T10:13:53;43.39;39.23;56.41;;
61095;Laerm;20450;49.074;9.158;2023-07-31T10:16:23;42.88;39.58;54.31;;
61095;Laerm;20450;49.074;9.158;2023-07-31T10:18:51;43.56;38.81;57.66;;
61095;Laerm;20450;49.074;9.158;2023-07-31T10:21:18;41.96;38.67;48.20;;
61095;Laerm;20450;49.074;9.158;2023-07-31T10:23:49;42.01;38.95;45.33;;
61095;Laerm;20450;49.074;9.158;2023-07-31T10:26:19;42.18;39.21;51.45;;
61095;Laerm;20450;49.074;9.158;2023-07-31T10:28:49;44.70;38.95;60.33;;
61095;Laerm;20450;49.074;9.158;2023-07-31T10:31:17;42.19;38.81;52.60;;
61095;Laerm;20450;49.074;9.158;2023-07-31T10:33:46;44.00;39.34;60.21;;
61095;Laerm;20450;49.074;9.158;2023-07-31T10:36:14;42.26;38.21;56.24;;
61095;Laerm;20450;49.074;9.158;2023-07-31T10:38:43;42.42;38.95;50.43;;
61095;Laerm;20450;49.074;9.158;2023-07-31T10:41:11;47.78;38.67;68.85;;
61095;Laerm;20450;49.074;9.158;2023-07-31T10:43:38;42.72;38.95;55.85;;
61095;Laerm;20450;49.074;9.158;2023-07-31T10:46:11;43.81;38.81;58.91;;
61095;Laerm;20450;49.074;9.158;2023-07-31T10:48:40;42.77;38.81;53.21;;
61095;Laerm;20450;49.074;9.158;2023-07-31T10:51:11;42.78;38.95;58.94;;
61095;Laerm;20450;49.074;9.158;2023-07-31T10:53:40;42.70;39.46;57.30;;
61095;Laerm;20450;49.074;9.158;2023-07-31T10:56:08;43.13;38.05;59.82;;
61095;Laerm;20450;49.074;9.158;2023-07-31T10:58:37;42.42;39.21;56.75;;
61095;Laerm;20450;49.074;9.158;2023-07-31T11:01:07;42.16;38.05;54.48;;
61095;Laerm;20450;49.074;9.158;2023-07-31T11:03:43;43.82;39.21;68.01;;
61095;Laerm;20450;49.074;9.158;2023-07-31T11:06:13;43.18;39.70;51.37;;
61095;Laerm;20450;49.074;9.158;2023-07-31T11:08:46;44.92;39.23;67.25;;
61095;Laerm;20450;49.074;9.158;2023-07-31T11:11:19;44.23;38.52;61.92;;
61095;Laerm;20450;49.074;9.158;2023-07-31T11:13:48;43.94;39.92;61.10;;
61095;Laerm;20450;49.074;9.158;2023-07-31T11:16:18;42.54;38.81;59.24;;
61095;Laerm;20450;49.074;9.158;2023-07-31T11:18:47;42.80;39.21;53.45;;
61095;Laerm;20450;49.074;9.158;2023-07-31T11:21:18;42.80;38.52;54.10;;
61095;Laerm;20450;49.074;9.158;2023-07-31T11:23:47;42.07;38.52;47.30;;
61095;Laerm;20450;49.074;9.158;2023-07-31T11:26:17;41.82;39.08;49.10;;
61095;Laerm;20450;49.074;9.158;2023-07-31T11:28:47;41.82;38.87;46.76;;
61095;Laerm;20450;49.074;9.158;2023-07-31T11:31:14;42.81;38.52;62.84;;
61095;Laerm;20450;49.074;9.158;2023-07-31T11:33:41;41.64;38.81;48.91;;
61095;Laerm;20450;49.074;9.158;2023-07-31T11:36:16;41.88;38.87;48.95;;
61095;Laerm;20450;49.074;9.158;2023-07-31T11:38:44;42.24;39.34;48.77;;
61095;Laerm;20450;49.074;9.158;2023-07-31T11:41:14;41.81;38.81;48.99;;
61095;Laerm;20450;49.074;9.158;2023-07-31T11:43:43;42.03;38.81;46.57;;
61095;Laerm;20450;49.074;9.158;2023-07-31T11:46:10;41.97;38.52;46.33;;
61095;Laerm;20450;49.074;9.158;2023-07-31T11:48:38;42.63;39.58;50.75;;
61095;Laerm;20450;49.074;9.158;2023-07-31T11:51:06;43.05;39.46;56.73;;
61095;Laerm;20450;49.074;9.158;2023-07-31T11:53:41;44.66;38.21;66.05;;
61095;Laerm;20450;49.074;9.158;2023-07-31T11:56:13;44.99;39.57;65.58;;
61095;Laerm;20450;49.074;9.158;2023-07-31T11:58:43;44.66;39.21;64.07;;
61095;Laerm;20450;49.074;9.158;2023-07-31T12:01:11;43.58;39.21;63.28;;
61095;Laerm;20450;49.074;9.158;2023-07-31T12:03:41;42.05;38.67;48.57;;
61095;Laerm;20450;49.074;9.158;2023-07-31T12:06:08;42.24;39.58;50.09;;
61095;Laerm;20450;49.074;9.158;2023-07-31T12:08:36;42.14;39.21;50.44;;
61095;Laerm;20450;49.074;9.158;2023-07-31T12:11:05;42.60;39.92;47.86;;
61095;Laerm;20450;49.074;9.158;2023-07-31T12:13:33;41.75;38.21;48.31;;
61095;Laerm;20450;49.074;9.158;2023-07-31T12:16:03;41.98;39.08;50.85;;
61095;Laerm;20450;49.074;9.158;2023-07-31T12:18:35;42.61;38.95;49.36;;
61095;Laerm;20450;49.074;9.158;2023-07-31T12:21:06;43.18;40.80;48.66;;
61095;Laerm;20450;49.074;9.158;2023-07-31T12:23:37;42.59;38.67;49.23;;
61095;Laerm;20450;49.074;9.158;2023-07-31T12:26:08;42.84;39.99;49.27;;
61095;Laerm;20450;49.074;9.158;2023-07-31T12:28:37;42.58;39.46;46.93;;
61095;Laerm;20450;49.074;9.158;2023-07-31T12:31:05;42.48;39.21;46.18;;
61095;Laerm;20450;49.074;9.158;2023-07-31T12:33:34;42.48;39.81;56.10;;
61095;Laerm;20450;49.074;9.158;2023-07-31T12:36:03;42.47;39.70;55.58;;
61095;Laerm;20450;49.074;9.158;2023-07-31T12:38:31;42.83;38.67;53.70;;
61095;Laerm;20450;49.074;9.158;2023-07-31T12:40:59;42.69;39.34;49.56;;
61095;Laerm;20450;49.074;9.158;2023-07-31T12:43:26;42.54;39.21;48.49;;
61095;Laerm;20450;49.074;9.158;2023-07-31T12:45:55;42.48;39.70;53.54;;
61095;Laerm;20450;49.074;9.158;2023-07-31T12:48:22;42.76;39.34;52.13;;
61095;Laerm;20450;49.074;9.158;2023-07-31T12:50:50;42.42;38.67;53.09;;
61095;Laerm;20450;49.074;9.158;2023-07-31T12:53:17;42.51;39.34;50.06;;
61095;Laerm;20450;49.074;9.158;2023-07-31T12:55:44;43.03;39.58;56.92;;
61095;Laerm;20450;49.074;9.158;2023-07-31T12:58:12;42.53;38.67;49.78;;
61095;Laerm;20450;49.074;9.158;2023-07-31T13:00:40;42.70;39.46;49.29;;
61095;Laerm;20450;49.074;9.158;2023-07-31T13:03:08;41.90;38.95;45.23;;
61095;Laerm;20450;49.074;9.158;2023-07-31T13:05:36;42.12;39.34;53.29;;
61095;Laerm;20450;49.074;9.158;2023-07-31T13:08:04;42.70;39.46;47.08;;
61095;Laerm;20450;49.074;9.158;2023-07-31T13:10:32;42.17;39.70;52.15;;
61095;Laerm;20450;49.074;9.158;2023-07-31T13:12:59;42.21;39.08;50.14;;
61095;Laerm;20450;49.074;9.158;2023-07-31T13:15:27;42.50;39.34;50.08;;
61095;Laerm;20450;49.074;9.158;2023-07-31T13:17:54;42.68;38.95;56.50;;
61095;Laerm;20450;49.074;9.158;2023-07-31T13:20:22;43.81;38.67;63.07;;
61095;Laerm;20450;49.074;9.158;2023-07-31T13:22:59;42.38;38.52;46.02;;
61095;Laerm;20450;49.074;9.158;2023-07-31T13:25:26;42.41;38.67;47.32;;
61095;Laerm;20450;49.074;9.158;2023-07-31T13:27:53;42.38;38.52;46.48;;
61095;Laerm;20450;49.074;9.158;2023-07-31T13:30:20;43.28;37.88;53.69;;
61095;Laerm;20450;49.074;9.158;2023-07-31T13:32:47;42.80;39.08;51.58;;
61095;Laerm;20450;49.074;9.158;2023-07-31T13:35:14;42.19;39.46;46.87;;
61095;Laerm;20450;49.074;9.158;2023-07-31T13:37:41;42.51;39.34;46.67;;
61095;Laerm;20450;49.074;9.158;2023-07-31T13:40:11;41.46;38.52;47.65;;
61095;Laerm;20450;49.074;9.158;2023-07-31T13:42:38;42.43;39.46;49.20;;
61095;Laerm;20450;49.074;9.158;2023-07-31T13:45:07;42.59;38.95;50.09;;
61095;Laerm;20450;49.074;9.158;2023-07-31T13:47:34;42.52;39.21;51.16;;
61095;Laerm;20450;49.074;9.158;2023-07-31T13:50:02;43.62;40.13;50.71;;